Vashon Island, Washington
Current Conditions -  °F | °C
As of 5:53 AM on Monday 20 Oct 2014 (Local Time) from KSEA Reporting Station
Overcast Overcast  
Wind Chill: 59°   Ceiling: 3500
Heat Index: 59°   Visibility: 10mi
Dew Point: 56°   Wind: 5mph
Humidity: 90%   Direction: 200°SSW
Pressure: 29.71"   Gusts: NA
Location:  47.4122°N, 122.472°W
Report Text: KSEA 201253Z 20004KT 10SM OVC035 15/13 A2971 RMK AO2 SLP066 T01500133
Loading
Personal Weather Stations






























Interactive Weather Map
Tropical Storm Tracking
New forecast layout! Learn more

10-Day Weather Forecast

Advertisements
Track Severe Weather on mobile